sensor_id;sensor_type;location;lat;lon;timestamp;pressure;altitude;pressure_sealevel;temperature;humidity
11605;BME280;5858;43.076;25.626;2022-12-29T00:00:04;100227.06;;;3.50;87.54
11605;BME280;5858;43.076;25.626;2022-12-29T00:02:32;100296.59;;;3.87;87.36
11605;BME280;5858;43.076;25.626;2022-12-29T00:04:59;100307.69;;;3.92;87.25
11605;BME280;5858;43.076;25.626;2022-12-29T00:07:26;100353.47;;;4.16;87.23
11605;BME280;5858;43.076;25.626;2022-12-29T00:09:53;100349.00;;;4.17;86.35
11605;BME280;5858;43.076;25.626;2022-12-29T00:12:20;100304.72;;;3.72;86.95
11605;BME280;5858;43.076;25.626;2022-12-29T00:14:47;100278.91;;;3.52;86.37
11605;BME280;5858;43.076;25.626;2022-12-29T00:17:33;100240.72;;;3.08;86.46
11605;BME280;5858;43.076;25.626;2022-12-29T00:20:00;100261.81;;;3.21;86.57
11605;BME280;5858;43.076;25.626;2022-12-29T00:22:45;100282.59;;;3.38;86.13
11605;BME280;5858;43.076;25.626;2022-12-29T00:25:29;100379.13;;;3.81;85.98
11605;BME280;5858;43.076;25.626;2022-12-29T00:28:16;100356.88;;;3.83;86.20
11605;BME280;5858;43.076;25.626;2022-12-29T00:31:01;100348.47;;;3.65;85.85
11605;BME280;5858;43.076;25.626;2022-12-29T00:33:47;100240.78;;;2.96;85.63
11605;BME280;5858;43.076;25.626;2022-12-29T00:36:32;100354.63;;;3.66;86.18
11605;BME280;5858;43.076;25.626;2022-12-29T00:39:06;100344.03;;;3.66;85.61
11605;BME280;5858;43.076;25.626;2022-12-29T00:41:51;100292.03;;;3.30;85.09
11605;BME280;5858;43.076;25.626;2022-12-29T00:44:36;100263.63;;;2.97;87.01
11605;BME280;5858;43.076;25.626;2022-12-29T00:47:03;100174.41;;;2.27;87.55
11605;BME280;5858;43.076;25.626;2022-12-29T00:49:32;100319.97;;;2.97;88.17
11605;BME280;5858;43.076;25.626;2022-12-29T00:52:00;100300.06;;;2.68;89.23
11605;BME280;5858;43.076;25.626;2022-12-29T00:54:29;100349.97;;;3.09;89.37
11605;BME280;5858;43.076;25.626;2022-12-29T00:56:56;100330.38;;;2.88;89.15
11605;BME280;5858;43.076;25.626;2022-12-29T00:59:24;100368.09;;;3.26;89.41
11605;BME280;5858;43.076;25.626;2022-12-29T01:01:51;100305.97;;;2.84;89.00
11605;BME280;5858;43.076;25.626;2022-12-29T01:04:20;100372.66;;;3.24;89.71
11605;BME280;5858;43.076;25.626;2022-12-29T01:06:49;100381.94;;;3.30;89.38
11605;BME280;5858;43.076;25.626;2022-12-29T01:09:17;100316.81;;;2.92;88.88
11605;BME280;5858;43.076;25.626;2022-12-29T01:12:06;100353.78;;;3.05;89.24
11605;BME280;5858;43.076;25.626;2022-12-29T01:14:34;100353.16;;;3.01;89.07
11605;BME280;5858;43.076;25.626;2022-12-29T01:17:01;100397.53;;;3.22;89.20
11605;BME280;5858;43.076;25.626;2022-12-29T01:19:28;100290.66;;;2.64;88.60
11605;BME280;5858;43.076;25.626;2022-12-29T01:21:57;100310.31;;;2.60;88.79
11605;BME280;5858;43.076;25.626;2022-12-29T01:24:24;100234.28;;;2.27;88.57
11605;BME280;5858;43.076;25.626;2022-12-29T01:26:52;100316.72;;;2.81;88.34
11605;BME280;5858;43.076;25.626;2022-12-29T01:29:19;100368.66;;;3.19;88.22
11605;BME280;5858;43.076;25.626;2022-12-29T01:31:46;100362.31;;;3.21;88.32
11605;BME280;5858;43.076;25.626;2022-12-29T01:34:15;100367.84;;;3.05;88.16
11605;BME280;5858;43.076;25.626;2022-12-29T01:36:42;100272.59;;;2.58;88.39
11605;BME280;5858;43.076;25.626;2022-12-29T01:39:10;100280.63;;;2.56;89.21
11605;BME280;5858;43.076;25.626;2022-12-29T01:41:38;100351.63;;;2.86;90.01
11605;BME280;5858;43.076;25.626;2022-12-29T01:44:39;100342.84;;;2.86;90.43
11605;BME280;5858;43.076;25.626;2022-12-29T01:47:14;100222.59;;;2.05;90.50
11605;BME280;5858;43.076;25.626;2022-12-29T01:49:45;100341.69;;;2.90;90.36
11605;BME280;5858;43.076;25.626;2022-12-29T01:52:15;100298.69;;;2.62;90.08
11605;BME280;5858;43.076;25.626;2022-12-29T01:54:47;100292.13;;;2.68;89.70
11605;BME280;5858;43.076;25.626;2022-12-29T01:57:20;100283.94;;;2.83;89.89
11605;BME280;5858;43.076;25.626;2022-12-29T01:59:50;100329.22;;;3.15;89.54
11605;BME280;5858;43.076;25.626;2022-12-29T02:02:19;100306.66;;;3.23;88.97
11605;BME280;5858;43.076;25.626;2022-12-29T02:04:46;100340.56;;;3.41;88.67
11605;BME280;5858;43.076;25.626;2022-12-29T02:07:17;100297.47;;;3.15;87.90
11605;BME280;5858;43.076;25.626;2022-12-29T02:09:49;100339.88;;;3.51;88.02
11605;BME280;5858;43.076;25.626;2022-12-29T02:12:18;100288.34;;;3.32;87.74
11605;BME280;5858;43.076;25.626;2022-12-29T02:14:47;100320.72;;;3.71;86.85
11605;BME280;5858;43.076;25.626;2022-12-29T02:17:23;100233.78;;;3.19;87.40
11605;BME280;5858;43.076;25.626;2022-12-29T02:20:19;100263.13;;;3.39;87.18
11605;BME280;5858;43.076;25.626;2022-12-29T02:23:02;100313.91;;;3.79;87.01
11605;BME280;5858;43.076;25.626;2022-12-29T02:25:55;100298.44;;;3.62;87.27
11605;BME280;5858;43.076;25.626;2022-12-29T02:29:00;100266.78;;;3.61;86.45
11605;BME280;5858;43.076;25.626;2022-12-29T02:31:40;100237.00;;;3.35;87.10
11605;BME280;5858;43.076;25.626;2022-12-29T02:34:20;100258.47;;;3.30;87.37
11605;BME280;5858;43.076;25.626;2022-12-29T02:37:00;100289.31;;;3.77;87.29
11605;BME280;5858;43.076;25.626;2022-12-29T02:39:35;100287.38;;;3.68;87.52
11605;BME280;5858;43.076;25.626;2022-12-29T02:42:12;100257.22;;;3.36;87.65
11605;BME280;5858;43.076;25.626;2022-12-29T02:44:46;100263.53;;;3.57;87.16
11605;BME280;5858;43.076;25.626;2022-12-29T02:47:22;100283.38;;;3.63;87.62
11605;BME280;5858;43.076;25.626;2022-12-29T02:49:57;100274.75;;;3.72;86.88
11605;BME280;5858;43.076;25.626;2022-12-29T02:52:30;100264.03;;;3.62;87.15
11605;BME280;5858;43.076;25.626;2022-12-29T02:54:58;100288.66;;;3.87;87.02
11605;BME280;5858;43.076;25.626;2022-12-29T02:57:30;100262.66;;;3.81;87.26
11605;BME280;5858;43.076;25.626;2022-12-29T03:00:01;100249.00;;;3.74;86.94
11605;BME280;5858;43.076;25.626;2022-12-29T03:02:48;100259.47;;;3.75;86.73
11605;BME280;5858;43.076;25.626;2022-12-29T03:05:34;100233.25;;;3.72;87.09
11605;BME280;5858;43.076;25.626;2022-12-29T03:08:13;100175.03;;;3.26;87.30
11605;BME280;5858;43.076;25.626;2022-12-29T03:10:49;100247.94;;;3.76;87.22
11605;BME280;5858;43.076;25.626;2022-12-29T03:13:23;100195.09;;;3.53;87.21
11605;BME280;5858;43.076;25.626;2022-12-29T03:16:16;100160.06;;;3.38;87.24
11605;BME280;5858;43.076;25.626;2022-12-29T03:18:51;100226.16;;;3.73;87.52
11605;BME280;5858;43.076;25.626;2022-12-29T03:21:27;100275.78;;;3.82;88.38
11605;BME280;5858;43.076;25.626;2022-12-29T03:24:11;100179.28;;;3.05;89.61
11605;BME280;5858;43.076;25.626;2022-12-29T03:26:40;100247.75;;;3.56;89.08
11605;BME280;5858;43.076;25.626;2022-12-29T03:29:10;100245.50;;;3.62;88.75
11605;BME280;5858;43.076;25.626;2022-12-29T03:31:38;100257.78;;;3.63;88.52
11605;BME280;5858;43.076;25.626;2022-12-29T03:34:08;100254.88;;;3.55;88.52
11605;BME280;5858;43.076;25.626;2022-12-29T03:36:42;100184.28;;;3.21;88.94
11605;BME280;5858;43.076;25.626;2022-12-29T03:39:12;100191.22;;;3.45;88.39
11605;BME280;5858;43.076;25.626;2022-12-29T03:41:41;100089.50;;;2.92;88.29
11605;BME280;5858;43.076;25.626;2022-12-29T03:44:10;100218.22;;;3.73;87.83
11605;BME280;5858;43.076;25.626;2022-12-29T03:46:37;100191.63;;;3.63;87.80
11605;BME280;5858;43.076;25.626;2022-12-29T03:49:06;100241.97;;;3.86;87.48
11605;BME280;5858;43.076;25.626;2022-12-29T03:51:33;100281.84;;;4.18;87.50
11605;BME280;5858;43.076;25.626;2022-12-29T03:54:00;100251.13;;;4.04;87.14
11605;BME280;5858;43.076;25.626;2022-12-29T03:56:27;100268.22;;;4.22;87.12
11605;BME280;5858;43.076;25.626;2022-12-29T03:58:54;100212.84;;;3.86;86.89
11605;BME280;5858;43.076;25.626;2022-12-29T04:01:24;100223.44;;;3.86;87.61
11605;BME280;5858;43.076;25.626;2022-12-29T04:03:51;100162.38;;;3.54;87.17
11605;BME280;5858;43.076;25.626;2022-12-29T04:06:19;100297.72;;;4.06;87.68
11605;BME280;5858;43.076;25.626;2022-12-29T04:08:46;100181.94;;;3.40;87.88
11605;BME280;5858;43.076;25.626;2022-12-29T04:11:13;100157.59;;;3.24;88.00
11605;BME280;5858;43.076;25.626;2022-12-29T04:13:41;100215.06;;;3.57;88.15
11605;BME280;5858;43.076;25.626;2022-12-29T04:16:08;100263.59;;;3.79;88.14
11605;BME280;5858;43.076;25.626;2022-12-29T04:18:35;100269.66;;;3.93;88.49
11605;BME280;5858;43.076;25.626;2022-12-29T04:21:02;100280.59;;;3.88;88.45
11605;BME280;5858;43.076;25.626;2022-12-29T04:23:32;100280.47;;;3.90;88.40
11605;BME280;5858;43.076;25.626;2022-12-29T04:25:59;100282.75;;;3.83;88.67
11605;BME280;5858;43.076;25.626;2022-12-29T04:28:26;100273.84;;;3.84;88.81
11605;BME280;5858;43.076;25.626;2022-12-29T04:30:53;100301.50;;;3.80;88.67
11605;BME280;5858;43.076;25.626;2022-12-29T04:33:20;100172.34;;;3.15;88.95
11605;BME280;5858;43.076;25.626;2022-12-29T04:35:48;100279.69;;;3.76;88.76
11605;BME280;5858;43.076;25.626;2022-12-29T04:38:15;100242.34;;;3.46;89.06
11605;BME280;5858;43.076;25.626;2022-12-29T04:40:45;100279.91;;;3.62;89.46
11605;BME280;5858;43.076;25.626;2022-12-29T04:43:15;100283.44;;;3.39;89.40
11605;BME280;5858;43.076;25.626;2022-12-29T04:45:44;100271.03;;;3.39;90.07
11605;BME280;5858;43.076;25.626;2022-12-29T04:48:12;100220.69;;;3.17;89.91
11605;BME280;5858;43.076;25.626;2022-12-29T04:50:40;100183.81;;;2.92;89.68
11605;BME280;5858;43.076;25.626;2022-12-29T04:53:09;100297.94;;;3.57;89.49
11605;BME280;5858;43.076;25.626;2022-12-29T04:55:36;100174.13;;;2.79;89.80
11605;BME280;5858;43.076;25.626;2022-12-29T04:58:05;100282.13;;;3.44;89.64
11605;BME280;5858;43.076;25.626;2022-12-29T05:00:33;100263.75;;;3.30;89.55
11605;BME280;5858;43.076;25.626;2022-12-29T05:03:00;100267.28;;;3.07;89.97
11605;BME280;5858;43.076;25.626;2022-12-29T05:05:28;100262.59;;;3.10;89.64
11605;BME280;5858;43.076;25.626;2022-12-29T05:07:55;100276.91;;;3.08;90.44
11605;BME280;5858;43.076;25.626;2022-12-29T05:10:22;100240.97;;;2.69;90.66
11605;BME280;5858;43.076;25.626;2022-12-29T05:12:49;100275.72;;;2.75;91.11
11605;BME280;5858;43.076;25.626;2022-12-29T05:15:17;100280.06;;;2.76;91.90
11605;BME280;5858;43.076;25.626;2022-12-29T05:17:44;100267.78;;;2.88;91.64
11605;BME280;5858;43.076;25.626;2022-12-29T05:20:11;100307.56;;;3.10;91.65
11605;BME280;5858;43.076;25.626;2022-12-29T05:22:39;100276.44;;;2.90;90.86
11605;BME280;5858;43.076;25.626;2022-12-29T05:25:06;100296.41;;;2.94;90.82
11605;BME280;5858;43.076;25.626;2022-12-29T05:27:33;100289.56;;;2.79;91.87
11605;BME280;5858;43.076;25.626;2022-12-29T05:30:00;100303.59;;;2.92;91.85
11605;BME280;5858;43.076;25.626;2022-12-29T05:32:30;100309.84;;;2.78;92.22
11605;BME280;5858;43.076;25.626;2022-12-29T05:34:57;100311.97;;;2.86;91.65
11605;BME280;5858;43.076;25.626;2022-12-29T05:37:24;100198.94;;;2.16;92.05
11605;BME280;5858;43.076;25.626;2022-12-29T05:39:51;100338.91;;;2.91;91.79
11605;BME280;5858;43.076;25.626;2022-12-29T05:42:23;100125.84;;;1.68;91.50
11605;BME280;5858;43.076;25.626;2022-12-29T05:44:52;100328.47;;;2.90;91.39
11605;BME280;5858;43.076;25.626;2022-12-29T05:47:19;100249.81;;;2.31;91.36
11605;BME280;5858;43.076;25.626;2022-12-29T05:49:50;100268.09;;;2.47;91.50
11605;BME280;5858;43.076;25.626;2022-12-29T05:52:21;100259.75;;;2.40;91.12
11605;BME280;5858;43.076;25.626;2022-12-29T05:54:50;100265.31;;;2.36;91.48
11605;BME280;5858;43.076;25.626;2022-12-29T05:57:23;100336.91;;;2.82;91.70
11605;BME280;5858;43.076;25.626;2022-12-29T05:59:50;100342.00;;;2.85;91.48
11605;BME280;5858;43.076;25.626;2022-12-29T06:02:18;100343.59;;;2.88;91.21
11605;BME280;5858;43.076;25.626;2022-12-29T06:04:46;100278.66;;;2.47;91.37
11605;BME280;5858;43.076;25.626;2022-12-29T06:07:21;100261.56;;;2.14;91.63
11605;BME280;5858;43.076;25.626;2022-12-29T06:09:52;100352.88;;;2.80;91.19
11605;BME280;5858;43.076;25.626;2022-12-29T06:12:19;100270.72;;;2.21;91.49
11605;BME280;5858;43.076;25.626;2022-12-29T06:15:14;100349.81;;;2.74;91.46
11605;BME280;5858;43.076;25.626;2022-12-29T06:17:55;100349.81;;;2.74;91.95
11605;BME280;5858;43.076;25.626;2022-12-29T06:20:22;100326.28;;;2.58;91.39
11605;BME280;5858;43.076;25.626;2022-12-29T06:22:57;100257.31;;;2.25;91.84
11605;BME280;5858;43.076;25.626;2022-12-29T06:25:27;100339.38;;;2.85;91.47
11605;BME280;5858;43.076;25.626;2022-12-29T06:27:56;100326.78;;;2.76;91.30
11605;BME280;5858;43.076;25.626;2022-12-29T06:30:23;100344.09;;;2.93;91.13
11605;BME280;5858;43.076;25.626;2022-12-29T06:32:51;100374.44;;;3.00;90.96
11605;BME280;5858;43.076;25.626;2022-12-29T06:35:18;100350.75;;;2.98;91.06
11605;BME280;5858;43.076;25.626;2022-12-29T06:37:45;100268.72;;;2.50;90.86
11605;BME280;5858;43.076;25.626;2022-12-29T06:40:13;100350.69;;;2.62;92.02
11605;BME280;5858;43.076;25.626;2022-12-29T06:42:40;100361.75;;;2.79;92.48
11605;BME280;5858;43.076;25.626;2022-12-29T06:45:12;100285.09;;;2.43;91.49
11605;BME280;5858;43.076;25.626;2022-12-29T06:47:39;100348.44;;;2.94;91.86
11605;BME280;5858;43.076;25.626;2022-12-29T06:50:07;100334.59;;;2.90;90.91
11605;BME280;5858;43.076;25.626;2022-12-29T06:52:34;100331.22;;;2.88;90.84
11605;BME280;5858;43.076;25.626;2022-12-29T06:55:01;100367.09;;;3.16;90.99
11605;BME280;5858;43.076;25.626;2022-12-29T06:57:30;100360.94;;;3.15;91.13
11605;BME280;5858;43.076;25.626;2022-12-29T06:59:57;100301.81;;;2.80;91.22
11605;BME280;5858;43.076;25.626;2022-12-29T07:02:24;100367.16;;;3.27;90.41
11605;BME280;5858;43.076;25.626;2022-12-29T07:04:52;100251.47;;;2.58;90.51
11605;BME280;5858;43.076;25.626;2022-12-29T07:07:19;100335.00;;;2.97;90.79
11605;BME280;5858;43.076;25.626;2022-12-29T07:09:47;100359.53;;;3.23;90.90
11605;BME280;5858;43.076;25.626;2022-12-29T07:12:15;100299.06;;;2.81;91.01
11605;BME280;5858;43.076;25.626;2022-12-29T07:14:44;100229.13;;;2.25;91.25
11605;BME280;5858;43.076;25.626;2022-12-29T07:17:11;100359.41;;;3.00;91.09
11605;BME280;5858;43.076;25.626;2022-12-29T07:19:38;100265.13;;;2.51;91.71
11605;BME280;5858;43.076;25.626;2022-12-29T07:22:28;100300.34;;;2.76;91.43
11605;BME280;5858;43.076;25.626;2022-12-29T07:25:12;100362.94;;;3.25;91.87
11605;BME280;5858;43.076;25.626;2022-12-29T07:27:39;100294.44;;;2.85;91.24
11605;BME280;5858;43.076;25.626;2022-12-29T07:30:09;100366.00;;;3.55;90.50
11605;BME280;5858;43.076;25.626;2022-12-29T07:32:36;100267.03;;;3.10;90.31
11605;BME280;5858;43.076;25.626;2022-12-29T07:35:07;100359.19;;;3.64;90.17
11605;BME280;5858;43.076;25.626;2022-12-29T07:37:41;100358.72;;;3.70;90.39
11605;BME280;5858;43.076;25.626;2022-12-29T07:40:09;100361.13;;;3.73;90.48
11605;BME280;5858;43.076;25.626;2022-12-29T07:42:36;100318.94;;;3.47;89.78
11605;BME280;5858;43.076;25.626;2022-12-29T07:45:06;100326.16;;;3.45;90.48
11605;BME280;5858;43.076;25.626;2022-12-29T07:47:36;100337.53;;;3.70;90.31
11605;BME280;5858;43.076;25.626;2022-12-29T07:50:03;100358.34;;;3.98;90.30
11605;BME280;5858;43.076;25.626;2022-12-29T07:52:48;100307.00;;;3.77;90.52
11605;BME280;5858;43.076;25.626;2022-12-29T07:55:24;100336.69;;;3.93;90.17
11605;BME280;5858;43.076;25.626;2022-12-29T07:57:52;100346.72;;;4.23;89.77
11605;BME280;5858;43.076;25.626;2022-12-29T08:00:20;100368.72;;;4.48;89.67
11605;BME280;5858;43.076;25.626;2022-12-29T08:02:49;100376.19;;;4.54;89.70
11605;BME280;5858;43.076;25.626;2022-12-29T08:05:20;100309.81;;;4.33;89.26
11605;BME280;5858;43.076;25.626;2022-12-29T08:07:47;100363.09;;;4.74;89.28
11605;BME280;5858;43.076;25.626;2022-12-29T08:10:15;100301.84;;;4.44;88.96
11605;BME280;5858;43.076;25.626;2022-12-29T08:12:48;100346.44;;;4.72;89.40
11605;BME280;5858;43.076;25.626;2022-12-29T08:15:20;100378.88;;;4.87;89.13
11605;BME280;5858;43.076;25.626;2022-12-29T08:17:58;100305.34;;;4.67;88.63
11605;BME280;5858;43.076;25.626;2022-12-29T08:20:29;100276.56;;;4.51;87.96
11605;BME280;5858;43.076;25.626;2022-12-29T08:22:58;100294.00;;;4.87;87.35
11605;BME280;5858;43.076;25.626;2022-12-29T08:25:32;100210.56;;;4.37;87.80
11605;BME280;5858;43.076;25.626;2022-12-29T08:28:02;100365.78;;;5.40;87.93
11605;BME280;5858;43.076;25.626;2022-12-29T08:30:40;100342.41;;;5.34;87.47
11605;BME280;5858;43.076;25.626;2022-12-29T08:33:15;100357.28;;;5.68;86.95
11605;BME280;5858;43.076;25.626;2022-12-29T08:36:02;100274.03;;;5.15;86.44
11605;BME280;5858;43.076;25.626;2022-12-29T08:38:31;100378.78;;;5.86;86.76
11605;BME280;5858;43.076;25.626;2022-12-29T08:41:10;100352.00;;;5.89;86.60
11605;BME280;5858;43.076;25.626;2022-12-29T08:43:41;100312.97;;;5.69;86.79
11605;BME280;5858;43.076;25.626;2022-12-29T08:46:15;100358.88;;;6.13;85.70
11605;BME280;5858;43.076;25.626;2022-12-29T08:48:51;100155.31;;;5.07;85.16
11605;BME280;5858;43.076;25.626;2022-12-29T08:51:25;100316.19;;;6.05;84.67
11605;BME280;5858;43.076;25.626;2022-12-29T08:53:59;100352.16;;;6.29;85.21
11605;BME280;5858;43.076;25.626;2022-12-29T08:56:31;100344.69;;;6.44;84.87
11605;BME280;5858;43.076;25.626;2022-12-29T08:59:06;100249.63;;;5.85;84.60
11605;BME280;5858;43.076;25.626;2022-12-29T09:01:39;100346.69;;;6.52;84.76
11605;BME280;5858;43.076;25.626;2022-12-29T09:04:11;100234.03;;;5.92;84.68
11605;BME280;5858;43.076;25.626;2022-12-29T09:06:41;100291.88;;;6.60;84.77
11605;BME280;5858;43.076;25.626;2022-12-29T09:09:09;100178.41;;;5.90;84.37
11605;BME280;5858;43.076;25.626;2022-12-29T09:11:44;100332.66;;;7.11;84.42
11605;BME280;5858;43.076;25.626;2022-12-29T09:14:14;100184.69;;;6.20;83.35
11605;BME280;5858;43.076;25.626;2022-12-29T09:16:53;100267.91;;;7.01;82.45
11605;BME280;5858;43.076;25.626;2022-12-29T09:19:40;100245.81;;;7.10;82.01
11605;BME280;5858;43.076;25.626;2022-12-29T09:22:16;100335.66;;;7.56;81.94
11605;BME280;5858;43.076;25.626;2022-12-29T09:24:57;100247.22;;;7.23;82.20
11605;BME280;5858;43.076;25.626;2022-12-29T09:27:28;100315.38;;;7.74;81.96
11605;BME280;5858;43.076;25.626;2022-12-29T09:30:05;100211.94;;;7.12;81.21
11605;BME280;5858;43.076;25.626;2022-12-29T09:32:36;100297.69;;;7.83;81.23
11605;BME280;5858;43.076;25.626;2022-12-29T09:38:36;100296.41;;;7.97;80.10
11605;BME280;5858;43.076;25.626;2022-12-29T09:41:20;100120.72;;;6.90;79.85
11605;BME280;5858;43.076;25.626;2022-12-29T09:44:31;100278.16;;;8.11;79.88
11605;BME280;5858;43.076;25.626;2022-12-29T09:47:34;100284.56;;;8.28;78.84
11605;BME280;5858;43.076;25.626;2022-12-29T09:50:29;100162.00;;;7.52;78.69
11605;BME280;5858;43.076;25.626;2022-12-29T09:53:20;100194.56;;;8.03;77.82
11605;BME280;5858;43.076;25.626;2022-12-29T09:55:57;100227.03;;;8.35;77.72
11605;BME280;5858;43.076;25.626;2022-12-29T09:58:49;100265.66;;;8.68;77.29
11605;BME280;5858;43.076;25.626;2022-12-29T10:01:36;100248.69;;;8.87;77.45
11605;BME280;5858;43.076;25.626;2022-12-29T10:04:08;100196.34;;;8.59;76.19
11605;BME280;5858;43.076;25.626;2022-12-29T10:06:43;100209.94;;;8.83;75.85
11605;BME280;5858;43.076;25.626;2022-12-29T10:09:17;100248.38;;;9.18;74.78
11605;BME280;5858;43.076;25.626;2022-12-29T10:12:16;100227.00;;;9.18;74.12
11605;BME280;5858;43.076;25.626;2022-12-29T10:14:59;100174.16;;;9.03;73.13
11605;BME280;5858;43.076;25.626;2022-12-29T10:17:58;100147.97;;;8.89;73.34
11605;BME280;5858;43.076;25.626;2022-12-29T10:20:46;100231.72;;;9.41;72.40
11605;BME280;5858;43.076;25.626;2022-12-29T10:23:46;100092.47;;;8.57;71.90
11605;BME280;5858;43.076;25.626;2022-12-29T10:26:40;100242.13;;;9.62;72.28
11605;BME280;5858;43.076;25.626;2022-12-29T10:32:44;100263.69;;;9.87;71.36
11605;BME280;5858;43.076;25.626;2022-12-29T10:35:43;100129.53;;;9.39;70.66
11605;BME280;5858;43.076;25.626;2022-12-29T10:38:37;100122.94;;;9.26;71.23
11605;BME280;5858;43.076;25.626;2022-12-29T10:41:23;100195.59;;;9.73;70.87
11605;BME280;5858;43.076;25.626;2022-12-29T10:43:57;100181.59;;;9.79;70.28
11605;BME280;5858;43.076;25.626;2022-12-29T10:46:40;100230.75;;;10.04;69.78
11605;BME280;5858;43.076;25.626;2022-12-29T10:52:06;100216.78;;;10.18;69.20
11605;BME280;5858;43.076;25.626;2022-12-29T10:55:15;100211.50;;;10.26;68.86
11605;BME280;5858;43.076;25.626;2022-12-29T10:57:43;100211.69;;;10.33;68.13
11605;BME280;5858;43.076;25.626;2022-12-29T11:00:13;100154.03;;;10.04;67.84
11605;BME280;5858;43.076;25.626;2022-12-29T11:06:08;100216.53;;;10.63;66.79
11605;BME280;5858;43.076;25.626;2022-12-29T11:08:50;100060.69;;;9.85;66.18
11605;BME280;5858;43.076;25.626;2022-12-29T11:11:36;100145.94;;;10.22;65.38
11605;BME280;5858;43.076;25.626;2022-12-29T11:14:16;100201.69;;;10.85;66.00
11605;BME280;5858;43.076;25.626;2022-12-29T11:19:57;100194.41;;;11.03;64.67
11605;BME280;5858;43.076;25.626;2022-12-29T11:22:28;100144.97;;;10.82;64.02
11605;BME280;5858;43.076;25.626;2022-12-29T11:25:10;100199.75;;;10.95;63.68
11605;BME280;5858;43.076;25.626;2022-12-29T11:31:07;100179.22;;;11.37;62.99
11605;BME280;5858;43.076;25.626;2022-12-29T11:33:38;100178.72;;;11.41;63.05
11605;BME280;5858;43.076;25.626;2022-12-29T11:36:10;100143.00;;;11.24;62.17
11605;BME280;5858;43.076;25.626;2022-12-29T11:38:41;100069.66;;;10.77;61.76
11605;BME280;5858;43.076;25.626;2022-12-29T11:41:12;100147.19;;;11.27;62.29
11605;BME280;5858;43.076;25.626;2022-12-29T11:43:41;100189.59;;;11.48;62.15
11605;BME280;5858;43.076;25.626;2022-12-29T11:46:14;100199.31;;;11.41;62.40
11605;BME280;5858;43.076;25.626;2022-12-29T11:48:43;100080.38;;;10.77;62.75
11605;BME280;5858;43.076;25.626;2022-12-29T11:51:21;100143.69;;;11.10;62.12
11605;BME280;5858;43.076;25.626;2022-12-29T11:53:52;100174.00;;;11.27;62.82
11605;BME280;5858;43.076;25.626;2022-12-29T11:56:30;100132.28;;;11.32;61.47
11605;BME280;5858;43.076;25.626;2022-12-29T11:59:40;100149.22;;;11.49;61.25
11605;BME280;5858;43.076;25.626;2022-12-29T12:02:26;100163.63;;;11.56;60.80
11605;BME280;5858;43.076;25.626;2022-12-29T12:05:21;99979.84;;;10.50;62.15
11605;BME280;5858;43.076;25.626;2022-12-29T12:08:26;100052.47;;;11.03;61.21
11605;BME280;5858;43.076;25.626;2022-12-29T12:14:29;100118.91;;;11.49;61.97
11605;BME280;5858;43.076;25.626;2022-12-29T12:17:23;100138.97;;;11.61;62.08
11605;BME280;5858;43.076;25.626;2022-12-29T12:20:26;100133.44;;;11.79;61.27
11605;BME280;5858;43.076;25.626;2022-12-29T12:23:10;100145.50;;;11.75;62.24
11605;BME280;5858;43.076;25.626;2022-12-29T12:25:50;100055.47;;;11.09;62.23
11605;BME280;5858;43.076;25.626;2022-12-29T12:28:36;100149.38;;;11.64;62.86
11605;BME280;5858;43.076;25.626;2022-12-29T12:31:17;100104.25;;;11.76;61.99
11605;BME280;5858;43.076;25.626;2022-12-29T12:33:55;99966.28;;;10.76;62.86
11605;BME280;5858;43.076;25.626;2022-12-29T12:36:42;100010.06;;;11.23;62.14
11605;BME280;5858;43.076;25.626;2022-12-29T12:39:24;100119.69;;;11.82;62.52
11605;BME280;5858;43.076;25.626;2022-12-29T12:42:15;100147.88;;;11.86;62.13
11605;BME280;5858;43.076;25.626;2022-12-29T12:44:54;100020.78;;;11.23;62.19
11605;BME280;5858;43.076;25.626;2022-12-29T12:47:39;100093.75;;;11.58;63.44
11605;BME280;5858;43.076;25.626;2022-12-29T12:53:25;99983.53;;;10.89;63.07
11605;BME280;5858;43.076;25.626;2022-12-29T12:56:15;100064.97;;;11.44;65.03
11605;BME280;5858;43.076;25.626;2022-12-29T12:58:55;100136.63;;;11.74;66.18
11605;BME280;5858;43.076;25.626;2022-12-29T13:01:40;100082.41;;;11.40;65.60
11605;BME280;5858;43.076;25.626;2022-12-29T13:08:30;99991.19;;;10.84;64.23
11605;BME280;5858;43.076;25.626;2022-12-29T13:11:33;100130.22;;;12.00;63.50
11605;BME280;5858;43.076;25.626;2022-12-29T13:14:38;100065.09;;;11.66;63.73
11605;BME280;5858;43.076;25.626;2022-12-29T13:17:36;100131.38;;;12.05;64.56
11605;BME280;5858;43.076;25.626;2022-12-29T13:20:33;99968.94;;;11.08;64.37
11605;BME280;5858;43.076;25.626;2022-12-29T13:23:22;99997.72;;;11.06;64.40
11605;BME280;5858;43.076;25.626;2022-12-29T13:26:17;100134.91;;;12.06;64.39
11605;BME280;5858;43.076;25.626;2022-12-29T13:28:59;99969.94;;;10.83;64.48
11605;BME280;5858;43.076;25.626;2022-12-29T13:31:42;100135.97;;;11.80;64.93
11605;BME280;5858;43.076;25.626;2022-12-29T13:34:22;100027.66;;;10.85;66.58
11605;BME280;5858;43.076;25.626;2022-12-29T13:36:55;100139.16;;;11.35;67.12
11605;BME280;5858;43.076;25.626;2022-12-29T13:39:41;100105.00;;;11.13;67.43
11605;BME280;5858;43.076;25.626;2022-12-29T13:42:11;100073.00;;;10.70;67.99
11605;BME280;5858;43.076;25.626;2022-12-29T13:44:44;100138.66;;;11.15;67.69
11605;BME280;5858;43.076;25.626;2022-12-29T13:47:25;100142.50;;;11.21;67.38
11605;BME280;5858;43.076;25.626;2022-12-29T13:49:59;100100.78;;;10.86;68.36
11605;BME280;5858;43.076;25.626;2022-12-29T13:52:49;100018.63;;;10.46;68.33
11605;BME280;5858;43.076;25.626;2022-12-29T13:55:27;100013.75;;;10.33;68.20
11605;BME280;5858;43.076;25.626;2022-12-29T13:58:03;100028.66;;;10.44;68.28
11605;BME280;5858;43.076;25.626;2022-12-29T14:00:48;100093.94;;;10.75;68.35
11605;BME280;5858;43.076;25.626;2022-12-29T14:03:50;100015.25;;;10.35;68.65
11605;BME280;5858;43.076;25.626;2022-12-29T14:06:24;100079.84;;;10.57;69.36
11605;BME280;5858;43.076;25.626;2022-12-29T14:08:57;100144.84;;;10.91;69.80